Flight Track Log - Related Links

Times and Time Zones

All times are in EDT time to prevent confusion due to time zone crossing. See the AFL150 flight status page for this flight to view local times or setup timezone preferences in your user account.


Time Position Orientation Groundspeed Altitude Reporting Facility
EDT Latitude Longitude Course Direction KTS MPH feet Rate Location/Type
Thu 06:03:00 AM 56.1841 37.1027 316° Northwest  Level FlightAware Approximate
Thu 06:04:00 AM 56.2641 36.9606 315° West  Level FlightAware Approximate
Thu 06:05:00 AM 56.3440 36.8179 315° West  Level FlightAware Approximate
Thu 06:06:00 AM 56.4238 36.6746 315° West  Level FlightAware Approximate
Thu 06:07:00 AM 56.5033 36.5307 315° West  Level FlightAware Approximate
Thu 06:08:00 AM 56.5827 36.3862 315° West  Level FlightAware Approximate
Thu 06:09:00 AM 56.6619 36.2411 315° West  Level FlightAware Approximate
Thu 06:10:00 AM 56.7410 36.0953 315° West  Level FlightAware Approximate
Thu 06:11:00 AM 56.8199 35.9490 315° West  Level FlightAware Approximate
Thu 06:12:00 AM 56.8986 35.8021 314° West  Level FlightAware Approximate
Thu 06:13:00 AM 56.9771 35.6545 314° West  Level FlightAware Approximate
Thu 06:14:00 AM 57.0555 35.5063 314° West  Level FlightAware Approximate
Thu 06:15:00 AM 57.1337 35.3575 314° West  Level FlightAware Approximate
Thu 06:16:00 AM 57.2117 35.2080 314° West  Level FlightAware Approximate
Thu 06:17:00 AM 57.2896 35.0580 314° West  Level FlightAware Approximate
Thu 06:18:00 AM 57.3672 34.9072 314° West  Level FlightAware Approximate
Thu 06:19:00 AM 57.4447 34.7559 314° West  Level FlightAware Approximate
Thu 06:20:00 AM 57.5220 34.6039 313° West  Level FlightAware Approximate
Thu 06:21:00 AM 57.5991 34.4512 313° West  Level FlightAware Approximate
Thu 06:22:00 AM 57.6760 34.2980 313° West  Level FlightAware Approximate
Thu 06:23:00 AM 57.6998 34.2472 312° West  Level FlightAware Approximate
Thu 06:24:00 AM 57.7746 34.0899 312° West  Level FlightAware Approximate
Thu 06:25:00 AM 57.8492 33.9318 312° West  Level FlightAware Approximate
Thu 06:26:00 AM 57.9236 33.7732 311° West  Level FlightAware Approximate
Thu 06:27:00 AM 57.9978 33.6138 311° West  Level FlightAware Approximate
Thu 06:28:00 AM 58.0718 33.4538 311° West  Level FlightAware Approximate
Thu 06:29:00 AM 58.1456 33.2932 311° West  Level FlightAware Approximate
Thu 06:30:00 AM 58.2192 33.1318 311° West  Level FlightAware Approximate
Thu 06:31:00 AM 58.2925 32.9698 311° West  Level FlightAware Approximate
Thu 06:32:00 AM 58.3657 32.8072 311° West  Level FlightAware Approximate
Thu 06:33:00 AM 58.4387 32.6438 311° West  Level FlightAware Approximate
Thu 06:34:00 AM 58.5115 32.4798 310° West  Level FlightAware Approximate
Thu 06:35:00 AM 58.5840 32.3151 310° West  Level FlightAware Approximate
Thu 06:36:00 AM 58.6564 32.1497 310° West  Level FlightAware Approximate
Thu 06:36:04 AM 56.4028 31.9162 288° West 393 452 36,000  Level FlightAware ADS-B
Thu 06:37:04 AM 56.4371 31.7284 288° West 394 453 36,000  Level FlightAware ADS-B
Thu 06:38:04 AM 56.4700 31.5453 288° West 389 448 36,000  Level FlightAware ADS-B
Thu 06:39:02 AM 56.5036 31.3576 288° West 386 444 36,000  Level FlightAware ADS-B
Thu 06:40:04 AM 56.5372 31.1717 291° West 383 441 36,000  Level FlightAware ADS-B
Thu 06:41:11 AM 56.5895 30.9974 306° West 365 420 36,000  Level FlightAware ADS-B
Thu 06:42:08 AM 56.6547 30.8564 311° West 360 414 36,000  Level FlightAware ADS-B
Thu 06:43:09 AM 56.7194 30.7154 307° West 356 410 36,000  Level FlightAware ADS-B
Thu 06:44:10 AM 56.7745 30.5681 304° West 356 410 36,000  Level FlightAware ADS-B
Thu 06:45:10 AM 56.8297 30.4199 304° West 355 409 36,000  Level FlightAware ADS-B
Thu 06:46:08 AM 56.8829 30.2758 304° West 355 409 36,000  Level FlightAware ADS-B
Thu 06:47:11 AM 56.9402 30.1201 304° West 356 410 36,000  Level FlightAware ADS-B
Thu 06:48:08 AM 56.9936 29.9734 304° West 353 406 36,000  Level FlightAware ADS-B
Thu 06:49:10 AM 57.0449 29.8317 304° West 344 396 36,000  Level FlightAware ADS-B
Thu 06:50:10 AM 57.0994 29.6804 304° West 341 392 36,000  Level FlightAware ADS-B
Thu 06:51:09 AM 57.1493 29.5408 303° West 337 388 36,000  Level FlightAware ADS-B
Thu 06:52:09 AM 57.2024 29.3916 303° West 336 387 36,000  Level FlightAware ADS-B
Thu 06:53:10 AM 57.2534 29.2476 303° West 337 388 36,000  Level FlightAware ADS-B
Thu 06:54:09 AM 57.3040 29.1039 303° West 334 384 36,000  Level FlightAware ADS-B
Thu 06:55:10 AM 57.3538 28.9613 303° West 330 380 36,000  Level FlightAware ADS-B
Thu 06:56:10 AM 57.4014 28.8245 303° West 326 375 36,000  Level FlightAware ADS-B
Thu 06:57:09 AM 57.4509 28.6814 303° West 325 374 36,000  Level FlightAware ADS-B
Thu 06:58:08 AM 57.4987 28.5425 302° West 325 374 36,000  Level FlightAware ADS-B
Thu 06:59:10 AM 57.5462 28.4034 302° West 327 376 36,000  Level FlightAware ADS-B
Thu 07:00:10 AM 57.5965 28.2556 302° West 328 377 36,000  Level FlightAware ADS-B
Thu 07:01:08 AM 57.6437 28.1158 302° West 328 377 36,000  Level FlightAware ADS-B
Thu 07:02:09 AM 57.6919 27.9727 302° West 327 376 36,000  Level FlightAware ADS-B
Thu 07:03:09 AM 57.7410 27.8258 302° West 325 374 36,000  Level FlightAware ADS-B
Thu 07:04:10 AM 57.7883 27.6834 302° West 325 374 36,000  Level FlightAware ADS-B
Thu 07:05:09 AM 57.8347 27.5376 296° West 331 381 36,000  Level FlightAware ADS-B
Thu 07:06:09 AM 57.8676 27.3765 291° West 334 384 36,000  Level FlightAware ADS-B
Thu 07:07:10 AM 57.9008 27.2130 291° West 332 382 36,000  Level FlightAware ADS-B
Thu 07:08:09 AM 57.9316 27.0606 291° West 331 381 36,000  Level FlightAware ADS-B
Thu 07:09:10 AM 57.9651 26.8927 290° West 333 383 36,000  Level FlightAware ADS-B
Thu 07:10:22 AM 58.0042 26.6951 290° West 333 383 36,000  Level FlightAware ADS-B
Thu 07:11:10 AM 58.0295 26.5660 290° West 333 383 36,000  Level FlightAware ADS-B
Thu 07:12:08 AM 58.0603 26.4081 290° West 334 384 36,000  Level FlightAware ADS-B
Thu 07:13:09 AM 58.0930 26.2390 290° West 334 384 36,000  Level FlightAware ADS-B
Thu 07:14:09 AM 58.1245 26.0744 290° West 335 386 36,000  Level FlightAware ADS-B
Thu 07:15:09 AM 58.1556 25.9107 290° West 334 384 36,000  Level FlightAware ADS-B
Thu 07:16:10 AM 58.1870 25.7440 290° West 335 386 36,000  Level FlightAware ADS-B
Thu 07:17:09 AM 58.2174 25.5811 289° West 335 386 36,000  Level FlightAware ADS-B
Thu 07:18:03 AM 58.2373 25.4738 289° West 336 387 36,000  Level FlightAware ADS-B
Thu 07:18:47 AM 58.2641 25.3285 289° West 336 387 36,000  Level FlightAware ADS-B
Thu 07:20:11 AM 58.3097 25.0783 289° West 336 387 36,000  Level FlightAware ADS-B
Thu 07:21:05 AM 58.3197 25.0230 289° West 337 388 36,000  Level FlightAware ADS-B
Thu 07:21:59 AM 58.3592 24.8026 289° West 339 390 36,000  Level FlightAware ADS-B
Thu 07:23:06 AM 58.3970 24.5895 289° West 338 389 36,000  Level FlightAware ADS-B
Thu 07:24:07 AM 58.4264 24.4200 286° West 343 395 36,000  Level FlightAware ADS-B
Thu 07:24:38 AM 58.4299 24.3967 286° West 342 394 36,000  Level FlightAware ADS-B
Thu 07:46:05 AM 58.9787 20.5296 288° West 351 404 36,000  Level FlightAware ADS-B
Thu 07:46:53 AM 59.0055 20.3645 288° West 353 406 36,000  Level FlightAware ADS-B
Thu 07:47:33 AM 59.0248 20.2449 287° West 354 407 36,000  Level FlightAware ADS-B
Thu 07:48:13 AM 59.0427 20.1330 287° West 355 409 36,000  Level FlightAware ADS-B
Thu 07:48:52 AM 59.0630 20.0049 287° West 355 409 36,000  Level FlightAware ADS-B
Thu 07:49:32 AM 59.0827 19.8807 287° West 355 409 36,000  Level FlightAware ADS-B
Thu 07:50:13 AM 59.1018 19.7587 287° West 355 409 36,000  Level FlightAware ADS-B
Thu 07:50:52 AM 59.1205 19.6388 287° West 357 411 36,000  Level FlightAware ADS-B
Thu 07:51:33 AM 59.1396 19.5151 287° West 357 411 36,000  Level FlightAware ADS-B
Thu 07:52:12 AM 59.1580 19.3953 287° West 357 411 36,000  Level FlightAware ADS-B
Thu 07:52:46 AM 59.1720 19.3036 287° West 357 411 36,000  Level FlightAware ADS-B
Thu 07:53:32 AM 59.1955 19.1481 286° West 357 411 36,000  Level FlightAware ADS-B
Thu 07:54:13 AM 59.2144 19.0224 286° West 357 411 36,000  Level FlightAware ADS-B
Thu 07:54:53 AM 59.2319 18.9051 286° West 359 413 36,000  Level FlightAware ADS-B
Thu 07:55:32 AM 59.2511 18.7752 286° West 360 414 36,000  Level FlightAware ADS-B
Thu 07:56:13 AM 59.2695 18.6498 286° West 362 417 36,000  Level FlightAware ADS-B
Thu 07:56:51 AM 59.2873 18.5277 286° West 364 419 36,000  Level FlightAware ADS-B
Thu 07:57:32 AM 59.3060 18.3986 286° West 364 419 36,000  Level FlightAware ADS-B
Thu 07:58:13 AM 59.3220 18.2874 286° West 364 419 36,000  Level FlightAware ADS-B
Thu 07:58:51 AM 59.3417 18.1488 286° West 363 418 36,000  Level FlightAware ADS-B
Thu 07:59:33 AM 59.3597 18.0216 285° West 363 418 36,000  Level FlightAware ADS-B
Thu 08:00:13 AM 59.3763 17.9028 285° West 364 419 36,000  Level FlightAware ADS-B
Thu 08:00:53 AM 59.3949 17.7687 285° West 365 420 36,000  Level FlightAware ADS-B
Thu 08:01:35 AM 59.4126 17.6409 285° West 365 420 36,000  Level FlightAware ADS-B
Thu 08:02:15 AM 59.4315 17.5031 285° West 366 421 36,000  Level FlightAware ADS-B
Thu 08:02:55 AM 59.4491 17.3733 285° West 366 421 36,000  Level FlightAware ADS-B
Thu 08:03:35 AM 59.4661 17.2460 285° West 366 421 36,000  Level FlightAware ADS-B
Thu 08:04:15 AM 59.4830 17.1188 285° West 365 420 36,000  Level FlightAware ADS-B
Thu 08:04:55 AM 59.4999 16.9913 285° West 364 419 36,000  Level FlightAware ADS-B
Thu 08:05:35 AM 59.5158 16.8704 284° West 362 417 36,000  Level FlightAware ADS-B
Thu 08:06:16 AM 59.5321 16.7451 284° West 364 419 36,000  Level FlightAware ADS-B
Thu 08:06:55 AM 59.5499 16.6070 284° West 365 420 36,000  Level FlightAware ADS-B
Thu 08:07:35 AM 59.5648 16.4901 284° West 367 422 36,000  Level FlightAware ADS-B
Thu 08:07:46 AM 59.5713 16.4391 283° West 365 420 36,000  Level FlightAware ADS-B
Thu 08:08:36 AM 59.5912 16.2814 284° West 369 425 36,000  Level FlightAware ADS-B
Thu 08:08:44 AM 59.5952 16.2493 283° West 367 422 36,000  Level FlightAware ADS-B
Thu 08:09:15 AM 59.6062 16.1616 284° West 370 426 36,000  Level FlightAware ADS-B
Thu 08:09:22 AM 59.6106 16.1256 283° West 368 423 36,000  Level FlightAware ADS-B
Thu 08:09:53 AM 59.6222 16.0328 284° West 370 426 36,000  Level FlightAware ADS-B
Thu 08:10:35 AM 59.6385 15.8999 284° West 371 427 36,000  Level FlightAware ADS-B
Thu 08:11:15 AM 59.6556 15.7595 284° West 372 428 36,000  Level FlightAware ADS-B
Thu 08:11:30 AM 59.6617 15.7087 282° West 372 428 36,000  Level FlightAware ADS-B
Thu 08:12:15 AM 59.6791 15.5634 283° West 373 429 36,000  Level FlightAware ADS-B
Thu 08:12:55 AM 59.6949 15.4307 283° West 374 430 36,000  Level FlightAware ADS-B
Thu 08:13:33 AM 59.7095 15.3067 283° West 374 430 36,000  Level FlightAware ADS-B
Thu 08:14:47 AM 59.7393 15.0507 283° West 374 430 36,000  Level FlightAware ADS-B
Thu 08:15:26 AM 59.7541 14.9209 283° West 375 432 36,000  Level FlightAware ADS-B
Thu 08:16:21 AM 59.7749 14.7373 283° West 373 429 36,000  Level FlightAware ADS-B
Thu 08:17:15 AM 59.7949 14.5584 282° West 373 429 36,000  Level FlightAware ADS-B
Thu 08:18:13 AM 59.8163 14.3637 282° West 374 430 36,000  Level FlightAware ADS-B
Thu 08:18:55 AM 59.8315 14.2247 282° West 374 430 36,000  Level FlightAware ADS-B
Thu 08:19:40 AM 59.8466 14.0836 281° West 372 428 36,000  Level FlightAware ADS-B
Thu 08:20:21 AM 59.8622 13.9373 281° West 370 426 36,000  Level FlightAware ADS-B
Thu 08:21:33 AM 59.8873 13.6981 280° West 370 426 36,000  Level FlightAware ADS-B
Thu 08:22:20 AM 59.9035 13.5404 280° West 369 425 36,000  Level FlightAware ADS-B
Thu 08:23:00 AM 59.9165 13.4139 280° West 369 425 36,000  Level FlightAware ADS-B
Thu 08:23:35 AM 59.9285 13.2952 280° West 369 425 36,000  Level FlightAware ADS-B
Thu 08:24:07 AM 59.9396 13.1834 280° West 371 427 36,000  Level FlightAware ADS-B
Thu 08:24:37 AM 59.9494 13.0845 280° West 372 428 36,000  Level FlightAware ADS-B
Thu 08:25:14 AM 59.9619 12.9576 280° West 375 432 36,000  Level FlightAware ADS-B
Thu 08:25:47 AM 59.9726 12.8475 280° West 375 432 36,000  Level FlightAware ADS-B
Thu 08:26:42 AM 59.9906 12.6587 280° West 376 433 36,000  Level FlightAware ADS-B
Thu 08:27:19 AM 60.0012 12.5323 278° West 374 430 36,000  Level FlightAware ADS-B
Thu 08:27:54 AM 60.0113 12.4129 281° West 376 433 36,000  Level FlightAware ADS-B
Thu 08:28:35 AM 60.0303 12.2742 286° West 376 433 36,000  Level FlightAware ADS-B
Thu 08:29:22 AM 60.0530 12.1201 285° West 376 433 36,000  Level FlightAware ADS-B
Thu 08:30:06 AM 60.0746 11.9720 285° West 377 434 36,000  Level FlightAware ADS-B
Thu 08:30:46 AM 60.0942 11.8364 285° West 378 435 36,000  Level FlightAware ADS-B
Thu 08:31:26 AM 60.1135 11.7018 285° West 377 434 36,000  Level FlightAware ADS-B
Thu 08:32:09 AM 60.1339 11.5580 285° West 378 435 36,000  Level FlightAware ADS-B
Thu 08:32:43 AM 60.1498 11.4445 285° West 378 435 36,000  Level FlightAware ADS-B
Thu 08:33:26 AM 60.1701 11.2992 286° West 381 438 36,000  Level FlightAware ADS-B
Thu 08:34:10 AM 60.1912 11.1470 286° West 381 438 36,000 Level FlightAware ADS-B
Thu 08:36:00 AM 60.2434 10.7455 285° West  Level Estimated
Thu 08:37:00 AM 60.2714 10.5259 285° West  Level Estimated
Thu 08:38:00 AM 60.2990 10.3059 284° West  Level Estimated
Thu 08:39:00 AM 60.3263 10.0856 284° West  Level Estimated
Thu 08:40:00 AM 60.3532 9.8649 284° West  Level Estimated
Thu 08:41:00 AM 60.3797 9.6439 284° West  Level Estimated
Thu 08:42:00 AM 60.4059 9.4225 284° West  Level Estimated
Thu 08:43:00 AM 60.4317 9.2007 283° West  Level Estimated
Thu 08:44:00 AM 60.4571 8.9786 283° West  Level Estimated
Thu 08:45:00 AM 60.4822 8.7561 283° West  Level Estimated
Thu 08:46:00 AM 60.5069 8.5333 283° West  Level Estimated
Thu 08:47:00 AM 60.5312 8.3102 283° West  Level Estimated
Thu 08:48:00 AM 60.5551 8.0867 282° West  Level Estimated
Thu 08:49:00 AM 60.5787 7.8629 282° West  Level Estimated
Thu 08:50:00 AM 60.6019 7.6388 282° West  Level Estimated
Thu 08:51:00 AM 60.6247 7.4144 282° West  Level Estimated
Thu 08:52:00 AM 60.6472 7.1896 282° West  Level Estimated
Thu 08:53:00 AM 60.6692 6.9646 281° West  Level Estimated
Thu 08:54:00 AM 60.6909 6.7392 281° West  Level Estimated
Thu 08:55:00 AM 60.7122 6.5135 281° West  Level Estimated
Thu 08:56:00 AM 60.7332 6.2875 281° West  Level Estimated
Thu 08:57:00 AM 60.7537 6.0613 281° West  Level Estimated
Thu 08:58:00 AM 60.7739 5.8347 280° West  Level Estimated
Thu 08:59:00 AM 60.7937 5.6079 280° West  Level Estimated
Thu 09:00:00 AM 60.8131 5.3808 280° West  Level Estimated
Thu 09:01:00 AM 60.8321 5.1534 280° West  Level Estimated
Thu 09:02:00 AM 60.8507 4.9257 280° West  Level Estimated
Thu 09:03:00 AM 60.8690 4.6978 279° West  Level Estimated
Thu 09:04:00 AM 60.8868 4.4697 279° West  Level Estimated
Thu 09:05:00 AM 60.9043 4.2412 279° West  Level Estimated
Thu 09:06:00 AM 60.9214 4.0126 279° West  Level Estimated
Thu 09:07:00 AM 60.9381 3.7836 279° West  Level Estimated
Thu 09:08:00 AM 60.9544 3.5545 278° West  Level Estimated
Thu 09:09:00 AM 60.9703 3.3251 278° West  Level Estimated
Thu 09:10:00 AM 60.9859 3.0955 278° West  Level Estimated
Thu 09:11:00 AM 61.0010 2.8657 278° West  Level Estimated
Thu 09:12:00 AM 61.0158 2.6356 278° West  Level Estimated
Thu 09:13:00 AM 61.0301 2.4053 277° West  Level Estimated
Thu 09:14:00 AM 61.0441 2.1749 277° West  Level Estimated
Thu 09:15:00 AM 61.0577 1.9442 277° West  Level Estimated
Thu 09:16:00 AM 61.0708 1.7134 277° West  Level Estimated
Thu 09:17:00 AM 61.0836 1.4823 277° West  Level Estimated
Thu 09:18:00 AM 61.0960 1.2511 276° West  Level Estimated
Thu 09:19:00 AM 61.1080 1.0196 276° West  Level Estimated
Thu 09:20:00 AM 61.1196 0.7881 276° West  Level Estimated
Thu 09:21:00 AM 61.1308 0.5563 276° West  Level Estimated
Thu 09:22:00 AM 61.1416 0.3244 276° West  Level Estimated
Thu 09:23:00 AM 61.1520 0.0923 275° West  Level Estimated
Thu 09:24:00 AM 61.1620 -0.1399 275° West  Level Estimated
Thu 09:25:00 AM 61.1716 -0.3723 275° West  Level Estimated
Thu 09:26:00 AM 61.1809 -0.6048 275° West  Level Estimated
Thu 09:27:00 AM 61.1897 -0.8374 275° West  Level Estimated
Thu 09:28:00 AM 61.1981 -1.0702 274° West  Level Estimated
Thu 09:29:00 AM 61.2061 -1.3031 274° West  Level Estimated
Thu 09:30:00 AM 61.2137 -1.5361 274° West  Level Estimated
Thu 09:31:00 AM 61.2210 -1.7692 274° West  Level Estimated
Thu 09:32:00 AM 61.2278 -2.0024 274° West  Level Estimated
Thu 09:33:00 AM 61.2342 -2.2357 273° West  Level Estimated
Thu 09:34:00 AM 61.2402 -2.4691 273° West  Level Estimated
Thu 09:35:00 AM 61.2458 -2.7026 273° West  Level Estimated
Thu 09:36:00 AM 61.2510 -2.9362 273° West  Level Estimated
Thu 09:37:00 AM 61.2559 -3.1698 273° West  Level Estimated
Thu 09:38:00 AM 61.2603 -3.4035 272° West  Level Estimated
Thu 09:39:00 AM 61.2643 -3.6373 272° West  Level Estimated
Thu 09:40:00 AM 61.2679 -3.8712 272° West  Level Estimated
Thu 09:41:00 AM 61.2711 -4.1051 272° West  Level Estimated
Thu 09:42:00 AM 61.2739 -4.3390 272° West  Level Estimated
Thu 09:43:00 AM 61.2763 -4.5730 271° West  Level Estimated
Thu 09:44:00 AM 61.2783 -4.8070 271° West  Level Estimated
Thu 09:45:00 AM 61.2799 -5.0410 271° West  Level Estimated
Thu 09:46:00 AM 61.2811 -5.2750 271° West  Level Estimated
Thu 09:47:00 AM 61.2819 -5.5091 271° West  Level Estimated
Thu 09:48:00 AM 61.2822 -5.7432 270° West  Level Estimated
Thu 09:49:00 AM 61.2822 -5.9773 270° West  Level Estimated
Thu 09:50:00 AM 61.2818 -6.2113 270° West  Level Estimated
Thu 09:51:00 AM 61.2810 -6.4454 270° West  Level Estimated
Thu 09:52:00 AM 61.2798 -6.6794 269° West  Level Estimated
Thu 09:53:00 AM 61.2781 -6.9135 269° West  Level Estimated
Thu 09:54:00 AM 61.2761 -7.1475 269° West  Level Estimated
Thu 09:55:00 AM 61.2737 -7.3814 269° West  Level Estimated
Thu 09:56:00 AM 61.2708 -7.6154 269° West  Level Estimated
Thu 09:57:00 AM 61.2676 -7.8492 268° West  Level Estimated
Thu 09:58:00 AM 61.2640 -8.0831 268° West  Level Estimated
Thu 09:59:00 AM 61.2599 -8.3168 268° West  Level Estimated
Thu 10:00:00 AM 61.2555 -8.5506 268° West  Level Estimated
Thu 10:01:00 AM 61.2506 -8.7842 268° West  Level Estimated
Thu 10:02:00 AM 61.2454 -9.0178 267° West  Level Estimated
Thu 10:03:00 AM 61.2397 -9.2513 267° West  Level Estimated
Thu 10:04:00 AM 61.2337 -9.4847 267° West  Level Estimated
Thu 10:05:00 AM 61.2272 -9.7180 267° West  Level Estimated
Thu 10:06:00 AM 61.2203 -9.9512 267° West  Level Estimated
Thu 10:07:00 AM 61.2131 -10.1843 266° West  Level Estimated
Thu 10:08:00 AM 61.2054 -10.4173 266° West  Level Estimated
Thu 10:09:00 AM 61.1974 -10.6501 266° West  Level Estimated
Thu 10:10:00 AM 61.1889 -10.8829 266° West  Level Estimated
Thu 10:11:00 AM 61.1801 -11.1155 266° West  Level Estimated
Thu 10:12:00 AM 61.1708 -11.3480 265° West  Level Estimated
Thu 10:13:00 AM 61.1612 -11.5804 265° West  Level Estimated
Thu 10:14:00 AM 61.1511 -11.8126 265° West  Level Estimated
Thu 10:15:00 AM 61.1407 -12.0446 265° West  Level Estimated
Thu 10:16:00 AM 61.1298 -12.2765 265° West  Level Estimated
Thu 10:17:00 AM 61.1186 -12.5083 264° West  Level Estimated
Thu 10:18:00 AM 61.1070 -12.7399 264° West  Level Estimated
Thu 10:19:00 AM 61.0949 -12.9712 264° West  Level Estimated
Thu 10:20:00 AM 61.0825 -13.2025 264° West  Level Estimated
Thu 10:21:00 AM 61.0697 -13.4335 264° West  Level Estimated
Thu 10:22:00 AM 61.0565 -13.6643 263° West  Level Estimated
Thu 10:23:00 AM 61.0429 -13.8950 263° West  Level Estimated
Thu 10:24:00 AM 61.0289 -14.1255 263° West  Level Estimated
Thu 10:25:00 AM 61.0145 -14.3557 263° West  Level Estimated
Thu 10:26:00 AM 60.9997 -14.5857 263° West  Level Estimated
Thu 10:27:00 AM 60.9845 -14.8155 262° West  Level Estimated
Thu 10:28:00 AM 60.9689 -15.0451 262° West  Level Estimated
Thu 10:29:00 AM 60.9530 -15.2745 262° West  Level Estimated
Thu 10:30:00 AM 60.9366 -15.5036 262° West  Level Estimated
Thu 10:31:00 AM 60.9199 -15.7325 262° West  Level Estimated
Thu 10:32:00 AM 60.9028 -15.9612 261° West  Level Estimated
Thu 10:33:00 AM 60.8853 -16.1896 261° West  Level Estimated
Thu 10:34:00 AM 60.8674 -16.4177 261° West  Level Estimated
Thu 10:35:00 AM 60.8491 -16.6456 261° West  Level Estimated
Thu 10:36:00 AM 60.8304 -16.8732 261° West  Level Estimated
Thu 10:37:00 AM 60.8114 -17.1006 260° West  Level Estimated
Thu 10:38:00 AM 60.7919 -17.3277 260° West  Level Estimated
Thu 10:39:00 AM 60.7721 -17.5545 260° West  Level Estimated
Thu 10:40:00 AM 60.7519 -17.7810 260° West  Level Estimated
Thu 10:41:00 AM 60.7313 -18.0073 260° West  Level Estimated
Thu 10:42:00 AM 60.7104 -18.2332 259° West  Level Estimated
Thu 10:43:00 AM 60.6890 -18.4589 259° West  Level Estimated
Thu 10:44:00 AM 60.6673 -18.6842 259° West  Level Estimated
Thu 10:45:00 AM 60.6452 -18.9093 259° West  Level Estimated
Thu 10:46:00 AM 60.6227 -19.1340 259° West  Level Estimated
Thu 10:47:00 AM 60.5999 -19.3584 258° West  Level Estimated
Thu 10:48:00 AM 60.5766 -19.5825 258° West  Level Estimated
Thu 10:49:00 AM 60.5530 -19.8062 258° West  Level Estimated
Thu 10:50:00 AM 60.5291 -20.0297 258° West  Level Estimated
Thu 10:51:00 AM 60.5047 -20.2528 258° West  Level Estimated
Thu 10:52:00 AM 60.4800 -20.4756 257° West  Level Estimated
Thu 10:53:00 AM 60.4549 -20.6980 257° West  Level Estimated
Thu 10:54:00 AM 60.4294 -20.9201 257° West  Level Estimated
Thu 10:55:00 AM 60.4036 -21.1418 257° West  Level Estimated
Thu 10:56:00 AM 60.3774 -21.3632 257° West  Level Estimated
Thu 10:57:00 AM 60.3508 -21.5842 256° West  Level Estimated
Thu 10:58:00 AM 60.3239 -21.8049 256° West  Level Estimated
Thu 10:59:00 AM 60.2966 -22.0252 256° West  Level Estimated
Thu 11:00:00 AM 60.2690 -22.2451 256° West  Level Estimated
Thu 11:01:00 AM 60.2409 -22.4646 256° West  Level Estimated
Thu 11:02:00 AM 60.2126 -22.6838 255° West  Level Estimated
Thu 11:03:00 AM 60.1838 -22.9026 255° West  Level Estimated
Thu 11:04:00 AM 60.1547 -23.1210 255° West  Level Estimated
Thu 11:05:00 AM 60.1252 -23.3390 255° West  Level Estimated
Thu 11:06:00 AM 60.0954 -23.5566 255° West  Level Estimated
Thu 11:07:00 AM 60.0652 -23.7738 255° West  Level Estimated
Thu 11:08:00 AM 60.0347 -23.9907 254° West  Level Estimated
Thu 11:09:00 AM 60.0038 -24.2071 254° West  Level Estimated
Thu 11:10:00 AM 59.9726 -24.4231 254° West  Level Estimated
Thu 11:11:00 AM 59.9410 -24.6387 254° West  Level Estimated
Thu 11:12:00 AM 59.9090 -24.8539 254° West  Level Estimated
Thu 11:13:00 AM 59.8767 -25.0687 253° West  Level Estimated
Thu 11:14:00 AM 59.8441 -25.2830 253° West  Level Estimated
Thu 11:15:00 AM 59.8111 -25.4970 253° West  Level Estimated
Thu 11:16:00 AM 59.7778 -25.7105 253° West  Level Estimated
Thu 11:17:00 AM 59.7441 -25.9236 253° West  Level Estimated
Thu 11:18:00 AM 59.7101 -26.1362 252° West  Level Estimated
Thu 11:19:00 AM 59.6757 -26.3484 252° West  Level Estimated
Thu 11:20:00 AM 59.6410 -26.5602 252° West  Level Estimated
Thu 11:21:00 AM 59.6059 -26.7715 252° West  Level Estimated
Thu 11:22:00 AM 59.5705 -26.9825 252° West  Level Estimated
Thu 11:23:00 AM 59.5348 -27.1929 252° West  Level Estimated
Thu 11:24:00 AM 59.4987 -27.4029 251° West  Level Estimated
Thu 11:25:00 AM 59.4623 -27.6125 251° West  Level Estimated
Thu 11:26:00 AM 59.4256 -27.8216 251° West  Level Estimated
Thu 11:27:00 AM 59.3885 -28.0302 251° West  Level Estimated
Thu 11:28:00 AM 59.3511 -28.2384 251° West  Level Estimated
Thu 11:29:00 AM 59.3134 -28.4461 250° West  Level Estimated
Thu 11:30:00 AM 59.2753 -28.6534 250° West  Level Estimated
Thu 11:31:00 AM 59.2369 -28.8602 250° West  Level Estimated
Thu 11:32:00 AM 59.1982 -29.0665 250° West  Level Estimated
Thu 11:33:00 AM 59.1591 -29.2724 250° West  Level Estimated
Thu 11:34:00 AM 59.1198 -29.4778 250° West  Level Estimated
Thu 11:35:00 AM 59.0801 -29.6827 249° West  Level Estimated
Thu 11:36:00 AM 59.0401 -29.8872 249° West  Level Estimated
Thu 11:37:00 AM 58.9997 -30.0911 249° West  Level Estimated
Thu 11:38:00 AM 58.9591 -30.2946 249° West  Level Estimated
Thu 11:39:00 AM 58.9181 -30.4976 249° West  Level Estimated
Thu 11:40:00 AM 58.8768 -30.7001 249° West  Level Estimated
Thu 11:41:00 AM 58.8352 -30.9022 248° West  Level Estimated
Thu 11:42:00 AM 58.7933 -31.1037 248° West  Level Estimated
Thu 11:43:00 AM 58.7510 -31.3048 248° West  Level Estimated
Thu 11:44:00 AM 58.7085 -31.5054 248° West  Level Estimated
Thu 11:45:00 AM 58.6656 -31.7055 248° West  Level Estimated
Thu 11:46:00 AM 58.6224 -31.9051 248° West  Level Estimated
Thu 11:47:00 AM 58.5790 -32.1041 247° West  Level Estimated
Thu 11:48:00 AM 58.5352 -32.3027 247° West  Level Estimated
Thu 11:49:00 AM 58.4911 -32.5008 247° West  Level Estimated
Thu 11:50:00 AM 58.4467 -32.6984 247° West  Level Estimated
Thu 11:51:00 AM 58.4020 -32.8955 247° West  Level Estimated
Thu 11:52:00 AM 58.3570 -33.0922 246° West  Level Estimated
Thu 11:53:00 AM 58.3117 -33.2883 246° West  Level Estimated
Thu 11:54:00 AM 58.2661 -33.4839 246° West  Level Estimated
Thu 11:55:00 AM 58.2202 -33.6790 246° West  Level Estimated
Thu 11:56:00 AM 58.1740 -33.8735 246° West  Level Estimated
Thu 11:57:00 AM 58.1275 -34.0676 246° West  Level Estimated
Thu 11:58:00 AM 58.0807 -34.2612 246° West  Level Estimated
Thu 11:59:00 AM 58.0336 -34.4543 245° Southwest  Level Estimated
Thu 12:00:00 PM 57.9863 -34.6468 245° Southwest  Level Estimated
Thu 12:01:00 PM 57.9386 -34.8389 245° Southwest  Level Estimated
Thu 12:02:00 PM 57.8907 -35.0304 245° Southwest  Level Estimated
Thu 12:03:00 PM 57.8424 -35.2214 245° Southwest  Level Estimated
Thu 12:04:00 PM 57.7939 -35.4119 245° Southwest  Level Estimated
Thu 12:05:00 PM 57.7451 -35.6019 244° Southwest  Level Estimated
Thu 12:06:00 PM 57.6960 -35.7914 244° Southwest  Level Estimated
Thu 12:07:00 PM 57.6466 -35.9804 244° Southwest  Level Estimated
Thu 12:08:00 PM 57.5970 -36.1688 244° Southwest  Level Estimated
Thu 12:09:00 PM 57.5470 -36.3568 244° Southwest  Level Estimated
Thu 12:10:00 PM 57.4968 -36.5442 244° Southwest  Level Estimated
Thu 12:11:00 PM 57.4463 -36.7311 243° Southwest  Level Estimated
Thu 12:12:00 PM 57.3956 -36.9175 243° Southwest  Level Estimated
Thu 12:13:00 PM 57.3445 -37.1034 243° Southwest  Level Estimated
Thu 12:14:00 PM 57.2932 -37.2887 243° Southwest  Level Estimated
Thu 12:15:00 PM 57.2416 -37.4736 243° Southwest  Level Estimated
Thu 12:16:00 PM 57.1898 -37.6579 243° Southwest  Level Estimated
Thu 12:17:00 PM 57.1377 -37.8417 242° Southwest  Level Estimated
Thu 12:18:00 PM 57.0853 -38.0250 242° Southwest  Level Estimated
Thu 12:19:00 PM 57.0326 -38.2078 242° Southwest  Level Estimated
Thu 12:20:00 PM 56.9797 -38.3900 242° Southwest  Level Estimated
Thu 12:21:00 PM 56.9265 -38.5717 242° Southwest  Level Estimated
Thu 12:22:00 PM 56.8731 -38.7529 242° Southwest  Level Estimated
Thu 12:23:00 PM 56.8193 -38.9336 242° Southwest  Level Estimated
Thu 12:24:00 PM 56.7654 -39.1138 241° Southwest  Level Estimated
Thu 12:25:00 PM 56.7111 -39.2935 241° Southwest  Level Estimated
Thu 12:26:00 PM 56.6566 -39.4726 241° Southwest  Level Estimated
Thu 12:27:00 PM 56.6019 -39.6512 241° Southwest  Level Estimated
Thu 12:28:00 PM 56.5469 -39.8293 241° Southwest  Level Estimated
Thu 12:29:00 PM 56.4916 -40.0069 241° Southwest  Level Estimated
Thu 12:30:00 PM 56.4361 -40.1840 241° Southwest  Level Estimated
Thu 12:31:00 PM 56.3804 -40.3605 240° Southwest  Level Estimated
Thu 12:32:00 PM 56.3244 -40.5365 240° Southwest  Level Estimated
Thu 12:33:00 PM 56.2681 -40.7121 240° Southwest  Level Estimated
Thu 12:34:00 PM 56.2116 -40.8871 240° Southwest  Level Estimated
Thu 12:35:00 PM 56.1548 -41.0615 240° Southwest  Level Estimated
Thu 12:36:00 PM 56.0979 -41.2355 240° Southwest  Level Estimated
Thu 12:37:00 PM 56.0406 -41.4089 239° Southwest  Level Estimated
Thu 12:38:00 PM 55.9831 -41.5819 239° Southwest  Level Estimated
Thu 12:39:00 PM 55.9254 -41.7543 239° Southwest  Level Estimated
Thu 12:40:00 PM 55.8674 -41.9262 239° Southwest  Level Estimated
Thu 12:41:00 PM 55.8092 -42.0976 239° Southwest  Level Estimated
Thu 12:42:00 PM 55.7508 -42.2685 239° Southwest  Level Estimated
Thu 12:42:18 PM 63.1333 -55.0167 238° Southwest 360 414 37,000  Level Gander Center
Thu 12:43:00 PM 55.6921 -42.4388 239° Southwest  Level Estimated
Thu 12:43:18 PM 63.0833 -55.2500 245° Southwest 450 518 37,000  Level Gander Center
Thu 12:44:18 PM 63.0167 -55.5167 246° West 460 529 37,000  Level Gander Center
Thu 12:45:00 PM 55.5741 -42.7780 238° Southwest  Level Estimated
Thu 12:45:00 PM 63.0016 -55.6478 246° West  Level FlightAware Approximate
Thu 12:45:18 PM 62.9833 -55.7667 254° West 460 529 37,000  Level Gander Center
Thu 12:46:00 PM 55.5147 -42.9469 238° Southwest  Level Estimated
Thu 12:46:18 PM 62.9333 -56.0000 245° Southwest 460 529 37,000  Level Gander Center
Thu 12:47:00 PM 55.4530 -43.1211 238° Southwest  Level Estimated
Thu 12:47:18 PM 62.8667 -56.2667 241° Southwest 460 529 37,000  Level Gander Center
Thu 12:48:18 PM 62.8167 -56.5333 248° West 460 529 37,000  Level Gander Center
Thu 12:49:18 PM 62.7667 -56.7833 246° West 460 529 37,000  Level Gander Center
Thu 12:51:33 PM 62.6167 -57.3500 240° Southwest 470 541 37,000  Level Gander Center
Thu 12:52:33 PM 62.5500 -57.5833 238° Southwest 460 529 37,000  Level Gander Center
Thu 12:53:33 PM 62.4833 -57.8333 240° Southwest 470 541 37,000  Level Gander Center
Thu 12:54:18 PM 62.4500 -57.9833 244° Southwest 470 541 37,000  Level Gander Center
Thu 12:55:18 PM 62.3833 -58.2000 236° Southwest 470 541 37,000  Level Gander Center
Thu 12:56:18 PM 62.3167 -58.4667 242° Southwest 460 529 37,000  Level Gander Center
Thu 12:57:33 PM 62.2000 -58.7167 225° Southwest 460 529 37,000  Level Montreal Center
Thu 12:58:33 PM 62.1500 -58.9333 244° Southwest 460 529 37,000  Level Montreal Center
Thu 12:59:33 PM 62.0667 -59.2000 236° Southwest 460 529 37,000  Level Montreal Center
Thu 01:00:33 PM 62.0333 -59.4000 251° West 450 518 37,000  Level Montreal Center
Thu 01:01:33 PM 61.9333 -59.6333 228° Southwest 460 529 37,000  Level Montreal Center
Thu 01:02:33 PM 61.8667 -59.8500 237° Southwest 460 529 37,000  Level Montreal Center
Thu 01:03:18 PM 61.8333 -60.0500 251° West 460 529 37,000  Level Gander Center
Thu 01:04:18 PM 61.7500 -60.3000 235° Southwest 460 529 37,000  Level Gander Center
Thu 01:05:18 PM 61.7000 -60.5167 244° Southwest 460 529 37,000  Level Gander Center
Thu 01:06:18 PM 61.6333 -60.7167 235° Southwest 460 529 37,000  Level Gander Center
Thu 01:07:18 PM 61.5667 -60.9667 241° Southwest 460 529 37,000  Level Gander Center
Thu 01:08:18 PM 61.4833 -61.1833 231° Southwest 460 529 37,000  Level Gander Center
Thu 01:09:18 PM 61.4167 -61.3833 235° Southwest 460 529 37,000  Level Gander Center
Thu 01:10:33 PM 61.3000 -61.6667 229° Southwest 460 529 37,000  Level Montreal Center
Thu 01:11:33 PM 61.2333 -61.8667 235° Southwest 460 529 37,000  Level Montreal Center
Thu 01:12:33 PM 61.1500 -62.0833 231° Southwest 460 529 37,000  Level Montreal Center
Thu 01:13:18 PM 61.1167 -62.3167 254° West 470 541 37,000  Level Gander Center
Thu 01:14:18 PM 61.0500 -62.5167 236° Southwest 470 541 37,000  Level Gander Center
Thu 01:15:18 PM 60.9500 -62.7500 229° Southwest 470 541 37,000  Level Gander Center
Thu 01:16:18 PM 60.8833 -62.9833 240° Southwest 490 564 37,000  Level Gander Center
Thu 01:17:18 PM 60.8000 -63.2167 234° Southwest 460 529 37,000  Level Gander Center
Thu 01:18:18 PM 60.7333 -63.4167 236° Southwest 470 541 37,000  Level Gander Center
Thu 01:19:18 PM 60.6667 -63.6500 240° Southwest 470 541 37,000  Level Gander Center
Thu 01:20:18 PM 60.6000 -63.8500 236° Southwest 460 529 37,000  Level Gander Center
Thu 01:21:18 PM 60.5000 -64.0500 225° Southwest 460 529 37,000  Level Gander Center
Thu 01:22:18 PM 60.4333 -64.2833 240° Southwest 460 529 37,000  Level Gander Center
Thu 01:23:18 PM 60.3667 -64.4833 236° Southwest 470 541 37,000  Level Gander Center
Thu 01:24:18 PM 60.2833 -64.6667 228° Southwest 470 541 37,000  Level Gander Center
Thu 01:25:18 PM 60.2000 -64.9000 234° Southwest 460 529 37,000  Level Gander Center
Thu 01:26:18 PM 60.1333 -65.0833 234° Southwest 460 529 37,000  Level Gander Center
Thu 01:27:18 PM 60.0500 -65.2833 230° Southwest 460 529 37,000  Level Gander Center
Thu 01:28:18 PM 59.9333 -65.4333 213° Southwest 460 529 37,000  Level Gander Center
Thu 01:29:18 PM 59.8333 -65.6167 223° Southwest 470 541 37,000  Level Gander Center
Thu 01:30:18 PM 59.7500 -65.8000 228° Southwest 460 529 37,000  Level Gander Center
Thu 01:31:18 PM 59.6500 -65.9667 220° Southwest 460 529 37,000  Level Gander Center
Thu 01:32:18 PM 59.5500 -66.1167 217° Southwest 460 529 37,000  Level Gander Center
Thu 01:33:18 PM 59.4667 -66.3000 228° Southwest 460 529 37,000  Level Gander Center
Thu 01:34:18 PM 59.3500 -66.4500 213° Southwest 460 529 37,000  Level Gander Center
Thu 01:35:18 PM 59.2667 -66.6000 223° Southwest 460 529 37,000  Level Gander Center
Thu 01:36:18 PM 59.1500 -66.7667 216° Southwest 460 529 37,000  Level Gander Center
Thu 01:37:18 PM 59.0667 -66.9167 223° Southwest 460 529 37,000  Level Gander Center
Thu 01:38:18 PM 58.9667 -67.1000 223° Southwest 460 529 37,000  Level Gander Center
Thu 01:39:18 PM 58.8667 -67.2500 218° Southwest 460 529 37,000  Level Gander Center
Thu 01:40:34 PM 58.7500 -67.4000 214° Southwest 460 529 37,000  Level Montreal Center
Thu 01:41:34 PM 58.6333 -67.5500 214° Southwest 450 518 37,000  Level Montreal Center
Thu 01:42:18 PM 58.5667 -67.7167 233° Southwest 460 529 37,000  Level Gander Center
Thu 01:43:18 PM 58.4667 -67.8833 221° Southwest 460 529 37,000  Level Gander Center
Thu 01:44:18 PM 58.3667 -68.0167 215° Southwest 460 529 37,000  Level Gander Center
Thu 01:45:18 PM 58.2667 -68.2000 224° Southwest 460 529 37,000  Level Gander Center
Thu 01:46:18 PM 58.1667 -68.3333 215° Southwest 470 541 37,000 313 Level Gander Center
Thu 01:47:13 PM 58.0833 -68.4167 208° Southwest 500 575 37,600 522 Climbing Montreal Center
Thu 01:48:13 PM 57.9667 -68.5667 214° Southwest 470 541 38,000 200 Climbing Montreal Center
Thu 01:49:13 PM 57.8833 -68.7167 224° Southwest 460 529 38,000  Level Montreal Center
Thu 01:50:13 PM 57.7667 -68.8333 208° Southwest 450 518 38,000  Level Montreal Center
Thu 01:51:13 PM 57.6833 -68.9667 221° Southwest 450 518 38,000  Level Montreal Center
Thu 01:52:13 PM 57.5667 -69.1167 215° Southwest 450 518 38,000  Level Montreal Center
Thu 01:53:13 PM 57.4667 -69.2667 219° Southwest 450 518 38,000  Level Montreal Center
Thu 01:54:13 PM 57.3833 -69.4000 221° Southwest 450 518 38,000  Level Montreal Center
Thu 01:55:13 PM 57.2667 -69.5167 208° Southwest 450 518 38,000  Level Montreal Center
Thu 01:56:13 PM 57.1667 -69.6500 216° Southwest 450 518 38,000  Level Montreal Center
Thu 01:57:13 PM 57.0667 -69.8000 219° Southwest 450 518 38,000  Level Montreal Center
Thu 01:58:13 PM 56.9667 -69.9333 216° Southwest 450 518 38,000  Level Montreal Center
Thu 01:59:13 PM 56.8500 -70.0500 209° Southwest 450 518 38,000  Level Montreal Center
Thu 02:00:13 PM 56.7667 -70.1833 221° Southwest 450 518 38,000  Level Montreal Center
Thu 02:01:13 PM 56.6500 -70.3333 215° Southwest 450 518 38,000  Level Montreal Center
Thu 02:02:13 PM 56.5333 -70.4667 212° Southwest 450 518 38,000  Level Montreal Center
Thu 02:03:13 PM 56.4333 -70.6000 216° Southwest 450 518 38,000  Level Montreal Center
Thu 02:04:13 PM 56.3333 -70.7000 209° Southwest 450 518 38,000  Level Montreal Center
Thu 02:05:13 PM 56.2333 -70.8500 220° Southwest 450 518 38,000  Level Montreal Center
Thu 02:06:13 PM 56.1167 -70.9833 213° Southwest 450 518 38,000  Level Montreal Center
Thu 02:07:13 PM 56.0167 -71.0833 209° Southwest 450 518 38,000  Level Montreal Center
Thu 02:08:13 PM 55.9167 -71.2167 217° Southwest 450 518 38,000  Level Montreal Center
Thu 02:09:13 PM 55.8167 -71.3500 217° Southwest 450 518 38,000  Level Montreal Center
Thu 02:10:13 PM 55.7167 -71.4500 209° Southwest 450 518 38,000  Level Montreal Center
Thu 02:11:13 PM 55.6000 -71.5833 213° Southwest 450 518 38,000  Level Montreal Center
Thu 02:12:13 PM 55.5000 -71.7167 217° Southwest 450 518 38,000  Level Montreal Center
Thu 02:13:13 PM 55.3833 -71.8333 210° Southwest 450 518 38,000  Level Montreal Center
Thu 02:14:13 PM 55.2833 -71.9667 217° Southwest 450 518 38,000  Level Montreal Center
Thu 02:15:13 PM 55.1833 -72.0667 210° Southwest 450 518 38,000  Level Montreal Center
Thu 02:16:13 PM 55.0667 -72.2000 213° Southwest 450 518 38,000  Level Montreal Center
Thu 02:17:13 PM 54.9667 -72.3167 214° Southwest 450 518 38,000  Level Montreal Center
Thu 02:18:13 PM 54.8500 -72.4500 213° Southwest 450 518 38,000  Level Montreal Center
Thu 02:19:13 PM 54.7500 -72.5833 218° Southwest 450 518 38,000  Level Montreal Center
Thu 02:20:13 PM 54.6500 -72.6667 206° Southwest 450 518 38,000  Level Montreal Center
Thu 02:21:13 PM 54.5500 -72.8000 218° Southwest 450 518 38,000  Level Montreal Center
Thu 02:22:13 PM 54.4333 -72.9167 210° Southwest 450 518 38,000  Level Montreal Center
Thu 02:23:13 PM 54.3333 -73.0167 210° Southwest 450 518 38,000  Level Montreal Center
Thu 02:24:13 PM 54.2333 -73.1333 214° Southwest 450 518 38,000  Level Montreal Center
Thu 02:25:13 PM 54.1167 -73.2667 214° Southwest 450 518 38,000  Level Montreal Center
Thu 02:26:13 PM 54.0000 -73.3833 210° Southwest 450 518 38,000  Level Montreal Center
Thu 02:27:13 PM 53.9000 -73.5000 215° Southwest 450 518 38,000  Level Montreal Center
Thu 02:28:13 PM 53.7833 -73.6000 207° Southwest 450 518 38,000  Level Montreal Center
Thu 02:29:13 PM 53.6833 -73.7167 215° Southwest 450 518 38,000  Level Montreal Center
Thu 02:30:13 PM 53.5667 -73.8167 207° Southwest 450 518 38,000  Level Montreal Center
Thu 02:31:13 PM 53.4500 -73.9000 203° Southwest 450 518 38,000  Level Montreal Center
Thu 02:32:13 PM 53.3333 -73.9833 203° Southwest 450 518 38,000  Level Montreal Center
Thu 02:33:13 PM 53.2333 -74.1000 215° Southwest 450 518 38,000  Level Montreal Center
Thu 02:34:13 PM 53.1167 -74.2000 207° Southwest 450 518 38,000  Level Montreal Center
Thu 02:35:13 PM 53.0000 -74.2833 203° Southwest 450 518 38,000  Level Montreal Center
Thu 02:36:13 PM 52.8833 -74.3667 203° Southwest 450 518 38,000  Level Montreal Center
Thu 02:37:13 PM 52.7667 -74.4667 207° Southwest 450 518 38,000  Level Montreal Center
Thu 02:38:13 PM 52.6667 -74.5833 215° Southwest 450 518 38,000  Level Montreal Center
Thu 02:39:13 PM 52.5500 -74.6667 203° Southwest 460 529 38,000  Level Montreal Center
Thu 02:40:13 PM 52.4167 -74.7500 201° Southwest 450 518 38,000  Level Montreal Center
Thu 02:41:13 PM 52.3167 -74.8333 207° Southwest 450 518 38,000  Level Montreal Center
Thu 02:42:13 PM 52.2000 -74.9167 204° Southwest 450 518 38,000  Level Montreal Center
Thu 02:43:13 PM 52.0833 -75.0000 204° Southwest 440 506 38,000  Level Montreal Center
Thu 02:44:13 PM 51.9667 -75.1167 212° Southwest 460 529 38,000  Level Montreal Center
Thu 02:45:13 PM 51.8500 -75.2000 204° Southwest 450 518 38,000  Level Montreal Center
Thu 02:46:13 PM 51.7500 -75.2833 207° Southwest 450 518 38,000  Level Montreal Center
Thu 02:47:13 PM 51.6333 -75.3667 204° Southwest 450 518 38,000  Level Montreal Center
Thu 02:48:13 PM 51.5167 -75.4500 204° Southwest 460 529 38,000  Level Montreal Center
Thu 02:49:13 PM 51.4000 -75.5667 212° Southwest 450 518 38,000  Level Montreal Center
Thu 02:50:13 PM 51.2833 -75.6500 204° Southwest 450 518 38,000  Level Montreal Center
Thu 02:51:13 PM 51.1667 -75.7167 200° South 450 518 38,000  Level Montreal Center
Thu 02:52:13 PM 51.0500 -75.8000 204° Southwest 450 518 38,000  Level Montreal Center
Thu 02:53:13 PM 50.9333 -75.8833 204° Southwest 460 529 38,000  Level Montreal Center
Thu 02:54:13 PM 50.8333 -76.0000 216° Southwest 460 529 38,000  Level Montreal Center
Thu 02:55:13 PM 50.7000 -76.0667 198° South 460 529 38,000  Level Montreal Center
Thu 02:56:13 PM 50.6000 -76.1500 208° Southwest 460 529 38,000  Level Montreal Center
Thu 02:57:13 PM 50.4833 -76.2333 204° Southwest 460 529 38,000  Level Montreal Center
Thu 02:58:13 PM 50.3667 -76.3000 200° South 460 529 38,000  Level Montreal Center
Thu 02:59:13 PM 50.2500 -76.4167 213° Southwest 460 529 38,000  Level Montreal Center
Thu 03:00:13 PM 50.1333 -76.4833 200° South 460 529 38,000  Level Montreal Center
Thu 03:01:13 PM 50.0000 -76.5667 202° Southwest 460 529 38,000  Level Montreal Center
Thu 03:02:13 PM 49.8833 -76.6500 205° Southwest 460 529 38,000  Level Montreal Center
Thu 03:03:13 PM 49.7667 -76.7500 209° Southwest 460 529 38,000  Level Montreal Center
Thu 03:04:13 PM 49.6500 -76.8167 200° South 460 529 38,000  Level Montreal Center
Thu 03:05:13 PM 49.5500 -76.9000 208° Southwest 450 518 38,000  Level Montreal Center
Thu 03:06:13 PM 49.4333 -76.9667 200° South 470 541 38,000  Level Montreal Center
Thu 03:07:13 PM 49.3000 -77.0500 202° Southwest 470 541 38,000  Level Montreal Center
Thu 03:08:13 PM 49.2000 -77.1500 213° Southwest 450 518 38,000  Level Montreal Center
Thu 03:09:13 PM 49.0833 -77.2167 201° Southwest 460 529 38,000  Level Montreal Center
Thu 03:10:13 PM 48.9667 -77.3000 205° Southwest 460 529 38,000  Level Montreal Center
Thu 03:11:12 PM 48.8333 -77.3667 198° South 460 529 38,000  Level Montreal Center
Thu 03:12:12 PM 48.7167 -77.4667 209° Southwest 460 529 38,000  Level Montreal Center
Thu 03:13:12 PM 48.6000 -77.5500 205° Southwest 460 529 38,000  Level Montreal Center
Thu 03:14:12 PM 48.4833 -77.6167 201° Southwest 450 518 38,000  Level Montreal Center
Thu 03:15:12 PM 48.3667 -77.6833 201° Southwest 450 518 38,000  Level Montreal Center
Thu 03:16:12 PM 48.2500 -77.7833 210° Southwest 460 529 38,000  Level Montreal Center
Thu 03:17:12 PM 48.1500 -77.8500 204° Southwest 460 529 38,000  Level Montreal Center
Thu 03:18:12 PM 48.0333 -77.9333 206° Southwest 460 529 38,000  Level Montreal Center
Thu 03:19:12 PM 47.8833 -78.0000 197° South 460 529 38,000  Level Montreal Center
Thu 03:20:12 PM 47.7833 -78.0333 193° South 460 529 38,000  Level Montreal Center
Thu 03:21:12 PM 47.6500 -78.1333 207° Southwest 460 529 38,000  Level Montreal Center
Thu 03:22:12 PM 47.5333 -78.1833 196° South 460 529 38,000  Level Montreal Center
Thu 03:23:12 PM 47.4167 -78.2667 206° Southwest 460 529 38,000  Level Montreal Center
Thu 03:24:12 PM 47.3000 -78.3167 196° South 460 529 38,000  Level Montreal Center
Thu 03:25:12 PM 47.1833 -78.3833 201° Southwest 460 529 38,000  Level Montreal Center
Thu 03:26:12 PM 47.0500 -78.4833 207° Southwest 460 529 38,000  Level Montreal Center
Thu 03:27:12 PM 46.9333 -78.5167 191° South 460 529 38,000  Level Montreal Center
Thu 03:33:13 PM 46.2169 -78.9301 201° Southwest 465 535 38,000  Level FlightAware ADS-B (CYYZ)
Thu 03:33:43 PM 46.1526 -78.9650 201° Southwest 466 536 38,000  Level FlightAware ADS-B (CYYZ)
Thu 03:34:12 PM 46.0930 -78.9974 201° Southwest 466 536 38,000  Level FlightAware ADS-B (CYYZ)
Thu 03:35:13 PM 45.9704 -79.0638 201° Southwest 466 536 38,000  Level FlightAware ADS-B (CYYZ)
Thu 03:35:43 PM 45.9136 -79.0943 201° Southwest 468 539 38,000  Level FlightAware ADS-B (CYYZ)
Thu 03:36:12 PM 45.8567 -79.1250 201° Southwest 468 539 38,000  Level FlightAware ADS-B (CYYZ)
Thu 03:36:43 PM 45.7919 -79.1597 201° Southwest 469 540 38,000  Level FlightAware ADS-B (CYYZ)
Thu 03:37:13 PM 45.7456 -79.1844 201° Southwest 470 541 38,000  Level FlightAware ADS-B (CYYZ)
Thu 03:37:42 PM 45.6707 -79.2243 201° Southwest 469 540 38,000  Level FlightAware ADS-B (CYYZ)
Thu 03:38:14 PM 45.6054 -79.2593 201° Southwest 469 540 38,000  Level FlightAware ADS-B (CYYZ)
Thu 03:38:43 PM 45.5760 -79.2749 201° Southwest 468 539 38,000  Level FlightAware ADS-B (CYYZ)
Thu 03:39:12 PM 45.4874 -79.3219 201° Southwest 468 539 38,000  Level FlightAware ADS-B (CYYZ)
Thu 03:39:44 PM 45.4304 -79.3520 201° Southwest 468 539 38,000  Level FlightAware ADS-B (CYYZ)
Thu 03:40:13 PM 45.3635 -79.3871 201° Southwest 468 539 38,000  Level FlightAware ADS-B (CYYZ)
Thu 03:40:42 PM 45.3048 -79.4180 201° Southwest 468 539 38,000  Level FlightAware ADS-B (CYYZ)
Thu 03:41:12 PM 45.2474 -79.4482 201° Southwest 469 540 38,000  Level FlightAware ADS-B (CYYZ)
Thu 03:41:43 PM 45.2036 -79.4712 201° Southwest 470 541 38,000  Level FlightAware ADS-B (CYYZ)
Thu 03:42:14 PM 45.1234 -79.5133 201° Southwest 471 542 38,000  Level FlightAware ADS-B (CYYZ)
Thu 03:42:43 PM 45.0590 -79.5468 201° Southwest 472 543 38,000  Level FlightAware ADS-B (CYYZ)
Thu 03:43:13 PM 45.0014 -79.5769 201° Southwest 472 543 38,000  Level FlightAware ADS-B (CYYZ)
Thu 03:44:09 PM 44.8852 -79.6372 201° Southwest 470 541 38,000  Level FlightAware ADS-B (CYYZ)
Thu 03:45:13 PM 44.7800 -79.6915 201° Southwest 471 542 38,000  Level FlightAware ADS-B (CYYZ)
Thu 03:45:43 PM 44.7440 -79.7100 201° Southwest 468 539 38,000  Level FlightAware ADS-B (CYYZ)
Thu 03:46:13 PM 44.6320 -79.7675 201° Southwest 465 535 38,000  Level FlightAware ADS-B (CYYZ)
Thu 03:46:43 PM 44.5764 -79.8016 207° Southwest 464 534 38,000  Level FlightAware ADS-B (CYYZ)
Thu 03:47:13 PM 44.5192 -79.8475 213° Southwest 461 531 38,000  Level FlightAware ADS-B (CYYZ)
Thu 03:47:43 PM 44.4640 -79.8987 214° Southwest 461 531 38,000  Level FlightAware ADS-B (CYYZ)
Thu 03:48:13 PM 44.4113 -79.9471 214° Southwest 463 533 38,000  Level FlightAware ADS-B (CYYZ)
Thu 03:48:44 PM 44.3566 -79.9964 213° Southwest 463 533 38,000  Level FlightAware ADS-B (CYYZ)
Thu 03:49:14 PM 44.3029 -80.0444 213° Southwest 463 533 38,000  Level FlightAware ADS-B (CYYZ)
Thu 03:49:43 PM 44.2494 -80.0923 213° Southwest 462 532 38,000  Level FlightAware ADS-B (CYYZ)
Thu 03:50:13 PM 44.1960 -80.1400 213° Southwest 463 533 38,000  Level FlightAware ADS-B (CYYZ)
Thu 03:50:43 PM 44.1415 -80.1886 213° Southwest 464 534 38,000  Level FlightAware ADS-B (CYYZ)
Thu 03:51:14 PM 44.0878 -80.2363 213° Southwest 463 533 38,000  Level FlightAware ADS-B (CYYZ)
Thu 03:51:44 PM 44.0345 -80.2836 213° Southwest 464 534 38,000  Level FlightAware ADS-B (CYYZ)
Thu 03:52:08 PM 43.9896 -80.3235 213° Southwest 462 532 38,000  Level FlightAware ADS-B
Thu 03:52:13 PM 43.9800 -80.3320 213° Southwest 463 533 38,000  Level FlightAware ADS-B (CYYZ)
Thu 03:52:44 PM 43.9261 -80.3796 213° Southwest 464 534 38,000  Level FlightAware ADS-B (CYYZ)
Thu 03:53:14 PM 43.8710 -80.4281 213° Southwest 464 534 38,000  Level FlightAware ADS-B (CYYZ)
Thu 03:53:43 PM 43.8235 -80.4697 213° Southwest 465 535 38,000  Level FlightAware ADS-B (CYYZ)
Thu 03:54:14 PM 43.7782 -80.5094 213° Southwest 464 534 38,000  Level FlightAware ADS-B (CYYZ)
Thu 03:54:43 PM 43.7158 -80.5640 213° Southwest 464 534 38,000  Level FlightAware ADS-B (CYYZ)
Thu 03:55:13 PM 43.6680 -80.6057 213° Southwest 464 534 38,000  Level FlightAware ADS-B (CYYZ)
Thu 03:55:43 PM 43.6310 -80.6380 213° Southwest 463 533 38,000  Level FlightAware ADS-B (CYYZ)
Thu 03:56:13 PM 43.5484 -80.7100 213° Southwest 462 532 38,000  Level FlightAware ADS-B (CYYZ)
Thu 03:56:43 PM 43.4951 -80.7563 213° Southwest 460 529 38,000  Level FlightAware ADS-B (CYYZ)
Thu 03:57:13 PM 43.4431 -80.8014 213° Southwest 460 529 38,000  Level FlightAware ADS-B (CYYZ)
Thu 03:57:43 PM 43.3847 -80.8519 213° Southwest 458 527 38,000  Level FlightAware ADS-B (CYYZ)
Thu 03:58:13 PM 43.3328 -80.8966 213° Southwest 456 525 38,000  Level FlightAware ADS-B (CYYZ)
Thu 03:58:43 PM 43.2776 -80.9439 213° Southwest 457 526 38,000  Level FlightAware ADS-B (CYYZ)
Thu 03:59:13 PM 43.2242 -80.9898 213° Southwest 456 525 38,000  Level FlightAware ADS-B (CYYZ)
Thu 03:59:14 PM 43.2391 -80.9770 212° Southwest 456 525 38,000  Level FlightAware ADS-B
Thu 03:59:44 PM 43.1706 -81.0357 213° Southwest 454 522 38,000  Level FlightAware ADS-B (CYYZ)
Thu 04:00:13 PM 43.1178 -81.0809 213° Southwest 452 520 38,000  Level FlightAware ADS-B (CYYZ)
Thu 04:00:44 PM 43.0642 -81.1266 212° Southwest 452 520 38,000  Level FlightAware ADS-B (CYYZ)
Thu 04:01:14 PM 43.0087 -81.1659 205° Southwest 458 527 38,000  Level FlightAware ADS-B (CYYZ)
Thu 04:01:43 PM 42.9508 -81.2011 206° Southwest 456 525 38,000  Level FlightAware ADS-B (CYYZ)
Thu 04:02:13 PM 42.8936 -81.2377 206° Southwest 456 525 38,000  Level FlightAware ADS-B (CYYZ)
Thu 04:02:43 PM 42.8368 -81.2733 205° Southwest 458 527 38,000  Level FlightAware ADS-B (CYYZ)
Thu 04:03:13 PM 42.7788 -81.3091 205° Southwest 460 529 38,000  Level FlightAware ADS-B (CYYZ)
Thu 04:03:43 PM 42.7218 -81.3441 205° Southwest 461 531 38,000  Level FlightAware ADS-B (CYYZ)
Thu 04:04:13 PM 42.6652 -81.3788 205° Southwest 461 531 38,000  Level FlightAware ADS-B (CYYZ)
Thu 04:04:44 PM 42.6044 -81.4159 205° Southwest 461 531 38,000  Level FlightAware ADS-B (CYYZ)
Thu 04:05:13 PM 42.5468 -81.4510 205° Southwest 462 532 38,000  Level FlightAware ADS-B (CYYZ)
Thu 04:05:43 PM 42.4878 -81.4870 205° Southwest 463 533 38,000  Level FlightAware ADS-B (CYYZ)
Thu 04:06:13 PM 42.4291 -81.5228 205° Southwest 465 535 38,000  Level FlightAware ADS-B (CYYZ)
Thu 04:06:14 PM 42.4779 -81.4931 204° Southwest 464 534 38,000  Level FlightAware ADS-B
Thu 04:06:43 PM 42.3706 -81.5584 205° Southwest 466 536 38,000  Level FlightAware ADS-B (CYYZ)
Thu 04:07:14 PM 42.3119 -81.5939 205° Southwest 469 540 38,000  Level FlightAware ADS-B (CYYZ)
Thu 04:07:43 PM 42.2525 -81.6298 205° Southwest 470 541 38,000  Level FlightAware ADS-B (CYYZ)
Thu 04:08:13 PM 42.1930 -81.6657 205° Southwest 469 540 38,000  Level FlightAware ADS-B (CYYZ)
Thu 04:08:44 PM 42.1332 -81.7019 205° Southwest 469 540 38,000  Level FlightAware ADS-B (CYYZ)
Thu 04:09:13 PM 42.0750 -81.7368 205° Southwest 470 541 38,000  Level FlightAware ADS-B (CYYZ)
Thu 04:09:44 PM 42.0140 -81.7733 205° Southwest 470 541 38,000  Level FlightAware ADS-B (CYYZ)
Thu 04:10:13 PM 41.9558 -81.8082 205° Southwest 470 541 38,000  Level FlightAware ADS-B (CYYZ)
Thu 04:10:43 PM 41.8964 -81.8437 205° Southwest 473 544 38,000  Level FlightAware ADS-B (CYYZ)
Thu 04:11:13 PM 41.8362 -81.8797 205° Southwest 470 541 38,000  Level FlightAware ADS-B (CYYZ)
Thu 04:11:44 PM 41.7771 -81.9147 204° Southwest 462 532 38,000  Level FlightAware ADS-B (CYYZ)
Thu 04:12:13 PM 41.7257 -81.9452 205° Southwest 461 531 38,000  Level FlightAware ADS-B (CYYZ)
Thu 04:13:13 PM 41.6344 -81.9994 204° Southwest 456 525 38,000  Level FlightAware ADS-B (CYYZ)
Thu 04:13:43 PM 41.5492 -82.0496 204° Southwest 455 524 38,000  Level FlightAware ADS-B (CYYZ)
Thu 04:14:13 PM 41.4879 -82.0859 204° Southwest 455 524 38,000  Level FlightAware ADS-B (CYYZ)
Thu 04:14:43 PM 41.4304 -82.1196 204° Southwest 451 519 38,000  Level FlightAware ADS-B (CYYZ)
Thu 04:15:14 PM 41.3817 -82.1479 202° Southwest 450 518 38,000  Level FlightAware ADS-B (CYYZ)
Thu 04:15:47 PM 41.3331 -82.1699 195° South 455 524 38,000  Level FlightAware ADS-B (CYYZ)
Thu 04:16:18 PM 41.2472 -82.2014 195° South 452 520 38,000  Level Indianapolis Center
Thu 04:17:20 PM 41.1258 -82.2442 195° South 452 520 38,000  Level Indianapolis Center
Thu 04:18:22 PM 41.0028 -82.2894 196° South 452 520 38,000  Level Indianapolis Center
Thu 04:19:24 PM 40.8781 -82.3331 195° South 457 526 38,000  Level Indianapolis Center
Thu 04:20:26 PM 40.7525 -82.3772 195° South 460 529 38,000  Level Indianapolis Center
Thu 04:21:28 PM 40.6272 -82.4219 195° South 460 529 38,000  Level Indianapolis Center
Thu 04:26:53 PM 39.9096 -82.6048 183° South 484 557 38,000  Level FlightAware ADS-B
Thu 04:27:28 PM 39.8341 -82.6101 183° South 486 559 38,000  Level FlightAware ADS-B
Thu 04:27:58 PM 39.7652 -82.6147 183° South 487 560 38,000  Level FlightAware ADS-B
Thu 04:28:37 PM 39.6800 -82.6205 183° South 485 558 38,000  Level FlightAware ADS-B
Thu 04:29:09 PM 39.6065 -82.6254 183° South 484 557 38,000  Level FlightAware ADS-B
Thu 04:29:47 PM 39.5203 -82.6313 183° South 484 557 38,000  Level FlightAware ADS-B
Thu 04:30:19 PM 39.4503 -82.6360 183° South 485 558 38,000  Level FlightAware ADS-B
Thu 04:30:58 PM 39.3656 -82.6414 183° South 482 555 38,000  Level FlightAware ADS-B
Thu 04:31:29 PM 39.2951 -82.6460 183° South 479 551 38,000  Level FlightAware ADS-B
Thu 04:32:08 PM 39.2089 -82.6519 183° South 472 543 38,000  Level FlightAware ADS-B
Thu 04:32:38 PM 39.1431 -82.6564 183° South 470 541 38,000  Level FlightAware ADS-B
Thu 04:33:09 PM 39.0773 -82.6608 183° South 471 542 38,000  Level FlightAware ADS-B
Thu 04:33:39 PM 39.0114 -82.6651 183° South 472 543 38,000  Level FlightAware ADS-B
Thu 04:34:09 PM 38.9588 -82.6686 183° South 473 544 38,000  Level FlightAware ADS-B
Thu 04:34:40 PM 38.8779 -82.6739 183° South 473 544 38,000  Level FlightAware ADS-B
Thu 04:35:11 PM 38.8124 -82.6781 183° South 472 543 38,000  Level FlightAware ADS-B
Thu 04:35:47 PM 38.7319 -82.6833 183° South 472 543 38,000  Level FlightAware ADS-B
Thu 04:36:17 PM 38.6648 -82.6877 183° South 468 539 38,000  Level FlightAware ADS-B
Thu 04:36:56 PM 38.6037 -82.6918 183° South 467 537 38,000  Level FlightAware ADS-B
Thu 04:37:36 PM 38.6037 -82.6918 183° South 470 541 38,000  Level FlightAware ADS-B
Thu 04:39:04 PM 38.3094 -82.7111 183° South 469 540 38,000  Level Indianapolis Center
Thu 04:40:06 PM 38.1786 -82.7200 183° South 469 540 38,000  Level Indianapolis Center
Thu 04:41:08 PM 38.0481 -82.7275 183° South 469 540 38,000  Level Indianapolis Center
Thu 04:42:10 PM 37.9181 -82.7367 183° South 469 540 38,000  Level Indianapolis Center
Thu 04:43:12 PM 37.7861 -82.7456 183° South 469 540 38,000  Level Indianapolis Center
Thu 04:44:15 PM 37.6600 -82.7725 190° South 465 535 38,000  Level Indianapolis Center
Thu 04:45:17 PM 37.5303 -82.8475 205° Southwest 442 509 38,000  Level Indianapolis Center
Thu 04:46:19 PM 37.4231 -82.9197 208° Southwest 440 506 38,000  Level Indianapolis Center
Thu 04:47:21 PM 37.3169 -82.9892 208° Southwest 436 502 38,000  Level Indianapolis Center
Thu 04:48:23 PM 37.2108 -83.0589 208° Southwest 435 501 38,000  Level Indianapolis Center
Thu 04:49:25 PM 37.0869 -83.1397 208° Southwest 435 501 38,000  Level Indianapolis Center
Thu 04:50:27 PM 36.9800 -83.2086 207° Southwest 435 501 38,000  Level Indianapolis Center
Thu 04:51:29 PM 36.8725 -83.2775 207° Southwest 435 501 38,000  Level Indianapolis Center
Thu 04:52:31 PM 36.7644 -83.3475 207° Southwest 435 501 38,000  Level Indianapolis Center
Thu 04:53:34 PM 36.6208 -83.3892 193° South 457 526 38,000  Level Indianapolis Center
Thu 04:54:36 PM 36.4969 -83.4186 191° South 457 526 38,000  Level Indianapolis Center
Thu 04:55:38 PM 36.3731 -83.4472 191° South 456 525 38,000  Level Indianapolis Center
Thu 04:56:40 PM 36.2511 -83.4764 191° South 451 519 38,000  Level Indianapolis Center
Thu 04:57:46 PM 36.1031 -83.5094 190° South 448 516 38,000  Level Atlanta Center
Thu 05:02:43 PM 35.4284 -83.6687 200° South 428 493 38,000  Level FlightAware ADS-B
Thu 05:03:13 PM 35.3703 -83.6941 200° South 431 496 38,000  Level FlightAware ADS-B
Thu 05:03:44 PM 35.3103 -83.7201 200° South 428 493 38,000  Level FlightAware ADS-B
Thu 05:04:32 PM 35.2190 -83.7597 200° South 426 490 38,000  Level FlightAware ADS-B
Thu 05:05:08 PM 35.1523 -83.7887 200° South 428 493 38,000  Level FlightAware ADS-B
Thu 05:05:47 PM 35.0795 -83.8203 200° South 429 494 38,000  Level FlightAware ADS-B
Thu 05:06:28 PM 34.9999 -83.8546 200° South 429 494 38,000  Level FlightAware ADS-B
Thu 05:07:09 PM 34.9218 -83.8882 200° South 426 490 38,000  Level FlightAware ADS-B
Thu 05:07:52 PM 34.8404 -83.9232 200° South 425 489 38,000  Level FlightAware ADS-B
Thu 05:08:29 PM 34.7704 -83.9531 200° South 424 488 38,000  Level FlightAware ADS-B
Thu 05:09:12 PM 34.6888 -83.9880 200° South 431 496 38,000  Level FlightAware ADS-B
Thu 05:09:51 PM 34.6160 -84.0191 200° South 426 490 38,000  Level FlightAware ADS-B
Thu 05:10:31 PM 34.5410 -84.0511 200° South 428 493 38,000  Level FlightAware ADS-B
Thu 05:11:03 PM 34.4797 -84.0773 200° South 428 493 38,000  Level FlightAware ADS-B
Thu 05:11:53 PM 34.3841 -84.1179 200° South 429 494 38,000  Level FlightAware ADS-B
Thu 05:12:33 PM 34.3080 -84.1501 200° South 429 494 38,000  Level FlightAware ADS-B
Thu 05:13:13 PM 34.2315 -84.1824 200° South 429 494 38,000  Level FlightAware ADS-B
Thu 05:13:54 PM 34.1540 -84.2152 200° South 428 493 38,000  Level FlightAware ADS-B
Thu 05:14:33 PM 34.0793 -84.2468 200° South 429 494 38,000  Level FlightAware ADS-B
Thu 05:15:13 PM 34.0026 -84.2789 200° South 430 495 38,000 -522 Level FlightAware ADS-B
Thu 05:16:05 PM 33.9030 -84.3205 199° South 422 486 37,200 -452 Descending FlightAware ADS-B
Thu 05:16:46 PM 33.9192 -84.3142 199° South 442 509 37,300 -119 Climbing Atlanta Center
Thu 05:17:46 PM 33.8042 -84.3614 199° South 442 509 37,000 -150 Descending Atlanta Center
Thu 05:18:46 PM 33.6936 -84.4083 199° South 432 497 37,000  Level Atlanta Center
Thu 05:19:46 PM 33.5767 -84.4353 191° South 427 491 37,000  Level Atlanta Center
Thu 05:20:46 PM 33.4514 -84.4347 180° South 444 511 37,000  Level Atlanta Center
Thu 05:21:46 PM 33.3239 -84.4342 180° South 455 524 37,000  Level Atlanta Center
Thu 05:22:46 PM 33.1986 -84.4311 179° South 455 524 37,000  Level Atlanta Center
Thu 05:23:46 PM 33.0714 -84.4306 180° South 455 524 37,000  Level Atlanta Center
Thu 05:24:46 PM 32.9442 -84.4275 179° South 461 531 37,000  Level Atlanta Center
Thu 05:25:46 PM 32.8042 -84.4269 180° South 461 531 37,000  Level Atlanta Center
Thu 05:26:46 PM 32.6792 -84.4189 177° South 456 525 37,000  Level Atlanta Center
Thu 05:27:46 PM 32.5475 -84.4158 179° South 456 525 37,000  Level Atlanta Center
Thu 05:28:46 PM 32.4222 -84.4128 179° South 461 531 37,000  Level Atlanta Center
Thu 05:29:46 PM 32.2950 -84.4100 179° South 461 531 37,000  Level Atlanta Center
Thu 05:30:46 PM 32.1678 -84.4069 179° South 461 531 37,000  Level Atlanta Center
Thu 05:31:46 PM 32.0425 -84.4064 180° South 456 525 37,000  Level Atlanta Center
Thu 05:32:51 PM 31.9069 -84.4025 179° South 459 528 37,000  Level Jacksonville Center
Thu 05:33:51 PM 31.7964 -84.4008 179° South 449 517 37,000  Level Jacksonville Center
Thu 05:39:07 PM 31.1237 -84.3849 179° South 442 509 37,000  Level FlightAware ADS-B
Thu 05:39:52 PM 31.0321 -84.3831 179° South 441 507 37,000  Level FlightAware ADS-B
Thu 05:40:26 PM 30.9627 -84.3817 179° South 442 509 37,000  Level FlightAware ADS-B
Thu 05:41:35 PM 30.8244 -84.3792 179° South 444 511 37,000  Level FlightAware ADS-B
Thu 05:42:17 PM 30.7363 -84.3775 179° South 445 512 37,000  Level FlightAware ADS-B
Thu 05:42:57 PM 30.6499 -84.3686 172° South 464 534 37,000  Level FlightAware ADS-B
Thu 05:43:28 PM 30.5850 -84.3538 167° South 476 548 37,000  Level FlightAware ADS-B
Thu 05:44:05 PM 30.5073 -84.3271 160° South 495 570 37,000  Level FlightAware ADS-B
Thu 05:44:57 PM 30.4062 -84.2752 151° Southeast 519 597 37,000  Level FlightAware ADS-B
Thu 05:45:27 PM 30.3340 -84.2280 151° Southeast 522 601 37,000  Level FlightAware ADS-B
Thu 05:46:16 PM 30.2278 -84.1589 151° Southeast 524 603 37,000  Level FlightAware ADS-B
Thu 05:46:54 PM 30.1482 -84.1071 151° Southeast 525 604 37,000  Level FlightAware ADS-B
Thu 05:47:27 PM 30.0801 -84.0627 151° Southeast 524 603 37,000  Level FlightAware ADS-B
Thu 05:48:03 PM 30.0021 -84.0118 151° Southeast 520 598 37,000  Level FlightAware ADS-B
Thu 05:48:36 PM 29.9330 -83.9671 151° Southeast 518 596 37,000  Level FlightAware ADS-B
Thu 05:49:21 PM 29.8391 -83.9063 151° Southeast 518 596 37,000  Level FlightAware ADS-B
Thu 05:49:51 PM 29.7847 -83.8736 151° Southeast 517 595 37,000  Level Jacksonville Center
Thu 05:50:51 PM 29.6578 -83.7936 151° Southeast 517 595 37,000  Level Jacksonville Center
Thu 05:51:51 PM 29.5331 -83.7114 150° Southeast 517 595 37,000  Level Jacksonville Center
Thu 05:52:51 PM 29.4106 -83.6339 151° Southeast 512 589 37,000  Level Jacksonville Center
Thu 05:58:19 PM 28.7175 -83.1903 151° Southeast 513 590 37,000  Level FlightAware ADS-B
Thu 06:01:15 PM 28.3511 -82.9602 151° Southeast 514 592 37,000  Level FlightAware ADS-B
Thu 06:02:20 PM 28.2148 -82.8751 151° Southeast 515 593 37,000  Level FlightAware ADS-B
Thu 06:04:01 PM 28.0082 -82.7467 151° Southeast 517 595 37,000  Level FlightAware ADS-B
Thu 06:05:29 PM 27.8197 -82.6264 149° Southeast 521 600 37,000  Level FlightAware ADS-B
Thu 06:06:01 PM 27.7548 -82.5823 149° Southeast 520 598 37,000  Level FlightAware ADS-B
Thu 06:06:41 PM 27.6714 -82.5265 149° Southeast 520 598 37,000  Level FlightAware ADS-B
Thu 06:07:24 PM 27.6016 -82.4801 149° Southeast 522 601 37,000  Level FlightAware ADS-B
Thu 06:07:51 PM 27.5273 -82.4376 161° South 501 577 37,000  Level FlightAware ADS-B
Thu 06:08:19 PM 27.4636 -82.4258 178° South 454 522 37,000  Level FlightAware ADS-B
Thu 06:09:10 PM 27.3600 -82.4286 181° South 445 512 37,000  Level FlightAware ADS-B
Thu 06:10:00 PM 27.2561 -82.4313 181° South 446 513 37,000  Level FlightAware ADS-B
Thu 06:10:41 PM 27.1720 -82.4336 182° South 447 514 37,000  Level FlightAware ADS-B
Thu 06:11:22 PM 27.0866 -82.4361 181° South 449 517 37,000  Level FlightAware ADS-B
Thu 06:12:40 PM 26.9337 -82.4402 181° South 450 518 37,000  Level FlightAware ADS-B
Thu 06:13:12 PM 26.8567 -82.4424 181° South 450 518 37,000  Level FlightAware ADS-B
Thu 06:13:51 PM 26.7744 -82.4446 181° South 452 520 37,000  Level FlightAware ADS-B
Thu 06:14:32 PM 26.6965 -82.4467 181° South 453 521 37,000  Level FlightAware ADS-B
Thu 06:15:02 PM 26.6255 -82.4486 181° South 452 520 37,000  Level FlightAware ADS-B
Thu 06:15:41 PM 26.5436 -82.4508 181° South 453 521 37,000  Level FlightAware ADS-B
Thu 06:16:19 PM 26.4638 -82.4530 181° South 454 522 37,000  Level FlightAware ADS-B
Thu 06:17:12 PM 26.3536 -82.4560 182° South 455 524 37,000  Level FlightAware ADS-B
Thu 06:17:42 PM 26.2897 -82.4578 181° South 456 525 37,000  Level FlightAware ADS-B
Thu 06:18:13 PM 26.2433 -82.4591 181° South 457 526 37,000  Level FlightAware ADS-B
Thu 06:18:52 PM 26.1411 -82.4618 181° South 457 526 37,000  Level FlightAware ADS-B
Thu 06:19:43 PM 26.0340 -82.4647 181° South 455 524 37,000  Level FlightAware ADS-B
Thu 06:20:22 PM 25.9526 -82.4667 181° South 454 522 37,000  Level FlightAware ADS-B
Thu 06:21:02 PM 25.8700 -82.4690 182° South 453 521 37,000  Level FlightAware ADS-B
Thu 06:21:32 PM 25.8043 -82.4710 182° South 454 522 37,000  Level FlightAware ADS-B
Thu 06:22:03 PM 25.7390 -82.4728 181° South 456 525 37,000  Level FlightAware ADS-B
Thu 06:22:43 PM 25.6536 -82.4749 181° South 458 527 37,000  Level FlightAware ADS-B
Thu 06:23:13 PM 25.5911 -82.4766 181° South 459 528 37,000 -296 Level FlightAware ADS-B
Thu 06:24:04 PM 25.4810 -82.4797 181° South 463 533 36,600 -703 Descending FlightAware ADS-B
Thu 06:25:04 PM 25.3539 -82.4829 181° South 463 533 35,700 -939 Descending FlightAware ADS-B
Thu 06:26:31 PM 25.1850 -82.4903 181° South 463 533 34,300 -694 Descending Miami Center
Thu 06:27:31 PM 25.0553 -82.4933 181° South 463 533 34,000 -150 Descending Miami Center
Thu 06:28:31 PM 24.9258 -82.4967 181° South 463 533 34,000 -400 Level Miami Center
Thu 06:29:31 PM 24.7961 -82.5022 182° South 463 533 33,200 -1,100 Descending Miami Center
Thu 06:30:31 PM 24.6686 -82.5056 181° South 463 533 31,800 -1,600 Descending Miami Center
Thu 06:31:31 PM 24.5456 -82.5089 181° South 458 527 30,000 -1,800 Descending Miami Center
Thu 06:32:31 PM 24.4222 -82.5125 182° South 453 521 28,200 -1,750 Descending Miami Center
Thu 06:33:31 PM 24.3011 -82.5139 181° South 441 507 26,500 -1,700 Descending Miami Center
Thu 06:34:31 PM 24.1903 -82.5181 182° South 429 494 24,800 -1,650 Descending Miami Center
Thu 06:35:31 PM 24.0753 -82.5194 181° South 418 481 23,200 -1,700 Descending Miami Center
Thu 06:36:31 PM 23.9644 -82.5236 182° South 407 468 21,400 -1,800 Descending Miami Center
Thu 06:38:00 PM 23.8099 -82.4400 154° Southeast  Level FlightAware Approximate
Thu 06:45:00 PM 22.9970 -82.4094 180° South  Level Estimated
Thu 06:46:00 PM 22.9891 -82.4091 180° South  Level Estimated
Thu 06:47:00 PM 22.9891 -82.4091 180° South  Level Estimated
Thu 06:48:00 PM 22.9891 -82.4091 180° South  Level Estimated
Thu 06:49:00 PM 22.9891 -82.4091 180° South  Level Estimated
Thu 06:50:00 PM 22.9891 -82.4091 180° South  Level Estimated
Thu 06:51:00 PM 22.9891 -82.4091 180° South  Level Estimated
Thu 06:52:00 PM 22.9891 -82.4091 180° South  Level Estimated
Thu 06:53:00 PM 22.9891 -82.4091 180° South  Level Estimated
Thu 06:54:00 PM 22.9891 -82.4091 180° South  Level Estimated
Thu 06:55:00 PM 22.9891 -82.4091 180° South  Level Estimated
Thu 06:56:00 PM 22.9891 -82.4091 180° South  Level Estimated
Thu 06:57:00 PM 22.9891 -82.4091 180° South  Level Estimated
Thu 06:58:00 PM 22.9891 -82.4091 180° South  Level Estimated
Thu 06:59:00 PM 22.9891 -82.4091 180° South  Level Estimated
Thu 07:00:00 PM 22.9891 -82.4091 180° South  Level Estimated
Thu 07:01:00 PM 22.9891 -82.4091 180° South  Level Estimated
Thu 07:02:00 PM 22.9891 -82.4091 180° South  Level Estimated
Thu 07:03:00 PM 22.9891 -82.4091 180° South  Level Estimated
Thu 07:04:00 PM 22.9891 -82.4091 180° South  Level Estimated
Thu 07:05:00 PM 22.9891 -82.4091 180° South  Level Estimated
Thu 07:06:00 PM 22.9891 -82.4091 180° South  Level Estimated
Thu 07:07:00 PM 22.9891 -82.4091 180° South  Level Estimated

Login

Don't have an account? Register now (free) for customized features, flight alerts, and more!